Flight Track Log - Related Links

Times and Time Zones

All times are in EST time to prevent confusion due to time zone crossing. See the N527DV flight status page for this flight to view local times or setup timezone preferences in your user account.

Time Position Orientation Groundspeed Altitude Reporting Facility
EST Latitude Longitude Course Direction KTS MPH feet Rate Location/Type
Thu 05:25:28 PM 61.2376 -149.4091 98° East 331 381 19,500  Level FlightAware ADS-B
Thu 05:26:07 PM 61.2291 -149.2840 98° East 343 395 21,300 2,734 Climbing FlightAware ADS-B
Thu 05:26:47 PM 61.2200 -149.1520 98° East 350 403 23,100 2,615 Climbing FlightAware ADS-B
Thu 05:27:25 PM 61.2121 -149.0269 97° East 357 411 24,700 2,361 Climbing FlightAware ADS-B
Thu 05:27:48 PM 61.2047 -148.9480 101° East 365 420 25,500 2,066 Climbing FlightAware ADS-B
Thu 05:28:26 PM 61.1773 -148.8276 115° Southeast 371 427 26,800 2,118 Climbing FlightAware ADS-B
Thu 05:28:56 PM 61.1546 -148.7323 116° Southeast 375 432 27,900 2,100 Climbing FlightAware ADS-B
Thu 05:29:26 PM 61.1317 -148.6366 116° Southeast 378 435 28,900 2,000 Climbing FlightAware ADS-B
Thu 05:30:08 PM 61.0988 -148.4994 116° Southeast 378 435 30,300 1,760 Climbing FlightAware ADS-B
Thu 05:30:41 PM 61.0741 -148.3970 116° Southeast 384 442 31,100 1,810 Climbing FlightAware ADS-B
Thu 05:31:11 PM 61.0499 -148.2966 116° Southeast 376 433 32,200 1,701 Climbing FlightAware ADS-B
Thu 05:31:48 PM 61.0225 -148.1842 117° Southeast 386 444 33,000 649 Climbing FlightAware ADS-B
Thu 05:32:25 PM 60.9897 -148.0497 117° Southeast 411 473 33,000  Level FlightAware ADS-B
Thu 05:32:55 PM 60.9636 -147.9436 117° Southeast 422 486 33,000  Level FlightAware ADS-B
Thu 05:33:26 PM 60.9369 -147.8353 117° Southeast 423 487 33,000  Level FlightAware ADS-B
Thu 05:34:07 PM 60.9007 -147.6896 117° Southeast 420 483 33,000  Level FlightAware ADS-B
Thu 05:34:41 PM 60.8704 -147.5681 117° Southeast 415 478 33,000  Level FlightAware ADS-B
Thu 05:35:25 PM 60.8328 -147.4185 117° Southeast 411 473 33,000  Level FlightAware ADS-B
Thu 05:35:56 PM 60.8053 -147.3095 117° Southeast 410 472 33,000  Level FlightAware ADS-B
Thu 05:36:26 PM 60.7787 -147.2052 117° Southeast 408 470 33,000  Level FlightAware ADS-B
Thu 05:36:57 PM 60.7531 -147.1045 118° Southeast 406 467 33,000  Level FlightAware ADS-B
Thu 05:37:41 PM 60.7172 -146.9644 118° Southeast 404 465 33,000 1,040 Level FlightAware ADS-B
Thu 05:38:12 PM 60.6883 -146.8524 118° Southeast 383 441 34,300 2,447 Climbing FlightAware ADS-B
Thu 05:38:57 PM 60.6537 -146.7188 118° Southeast 361 415 36,100 1,880 Climbing FlightAware ADS-B
Thu 05:39:35 PM 60.6232 -146.6022 118° Southeast 359 413 36,900 1,297 Climbing FlightAware ADS-B
Thu 05:40:11 PM 60.5947 -146.4934 118° Southeast 360 414 37,700 1,075 Climbing FlightAware ADS-B
Thu 05:40:42 PM 60.5703 -146.4010 118° Southeast 361 415 38,100 985 Climbing FlightAware ADS-B
Thu 05:41:18 PM 60.5421 -146.2944 118° Southeast 361 415 38,800 915 Climbing FlightAware ADS-B
Thu 05:42:40 PM 60.4768 -146.0490 118° Southeast 362 417 39,900 737 Climbing FlightAware ADS-B
Thu 05:43:12 PM 60.4534 -145.9618 118° Southeast 366 421 40,200 677 Climbing FlightAware ADS-B
Thu 05:43:42 PM 60.4276 -145.8664 119° Southeast 362 417 40,600 658 Climbing FlightAware ADS-B
Thu 05:44:25 PM 60.3928 -145.7379 119° Southeast 367 422 41,000 289 Climbing FlightAware ADS-B
Thu 05:45:05 PM 60.3598 -145.6167 119° Southeast 380 437 41,000  Level FlightAware ADS-B
Thu 05:46:22 PM 60.2926 -145.3720 119° Southeast 399 459 41,000  Level FlightAware ADS-B
Thu 05:48:41 PM 60.1674 -144.9230 119° Southeast 417 480 41,000  Level FlightAware ADS-B
Thu 05:49:42 PM 60.1000 -144.7333 119° Southeast 410 472 41,000  Level Anchorage Center
Thu 05:50:42 PM 60.0500 -144.5333 117° Southeast 410 472 41,000  Level Anchorage Center
Thu 05:51:42 PM 59.9833 -144.3333 124° Southeast 420 483 41,000  Level Anchorage Center
Thu 05:52:42 PM 59.9333 -144.1333 116° Southeast 410 472 41,000  Level Anchorage Center
Thu 05:53:43 PM 59.8667 -143.9333 124° Southeast 410 472 41,000  Level Anchorage Center
Thu 05:54:43 PM 59.8167 -143.7333 116° Southeast 400 460 41,000  Level Anchorage Center
Thu 05:55:43 PM 59.7667 -143.5500 118° Southeast 400 460 41,000  Level Anchorage Center
Thu 05:56:44 PM 59.7000 -143.3500 123° Southeast 390 449 41,000  Level Anchorage Center
Thu 05:57:44 PM 59.6500 -143.1667 118° Southeast 390 449 41,000  Level Anchorage Center
Thu 05:58:45 PM 59.5833 -142.9833 126° Southeast 390 449 41,000  Level Anchorage Center
Thu 05:59:45 PM 59.5333 -142.8000 118° Southeast 380 437 41,000  Level Anchorage Center
Thu 06:00:45 PM 59.4833 -142.6333 121° Southeast 380 437 41,000  Level Anchorage Center
Thu 06:01:46 PM 59.4167 -142.4500 126° Southeast 390 449 41,000  Level Anchorage Center
Thu 06:02:46 PM 59.3667 -142.2667 118° Southeast 400 460 41,000  Level Anchorage Center
Thu 06:03:46 PM 59.3167 -142.0833 118° Southeast 380 437 41,000  Level Anchorage Center
Thu 06:04:47 PM 59.2500 -141.9000 125° Southeast 380 437 41,000  Level Anchorage Center
Thu 06:05:47 PM 59.2000 -141.7333 120° Southeast 390 449 41,000  Level Anchorage Center
Thu 06:06:47 PM 59.1333 -141.5500 125° Southeast 380 437 41,000  Level Anchorage Center
Thu 06:07:47 PM 59.0833 -141.3667 118° Southeast 390 449 41,000  Level Anchorage Center
Thu 06:08:47 PM 59.0167 -141.2000 128° Southeast 380 437 41,000  Level Anchorage Center
Thu 06:09:48 PM 58.9667 -141.0167 118° Southeast 390 449 41,000  Level Anchorage Center
Thu 06:10:48 PM 58.9000 -140.8500 128° Southeast 380 437 41,000  Level Anchorage Center
Thu 06:11:48 PM 58.8500 -140.6667 118° Southeast 390 449 41,000  Level Anchorage Center
Thu 06:12:49 PM 58.7833 -140.5000 128° Southeast 390 449 41,000  Level Anchorage Center
Thu 06:13:49 PM 58.7167 -140.3333 128° Southeast 390 449 41,000  Level Anchorage Center
Thu 06:14:49 PM 58.6333 -140.1833 137° Southeast 400 460 41,000  Level Anchorage Center
Thu 06:15:50 PM 58.5667 -140.0167 127° Southeast 400 460 41,000  Level Anchorage Center
Thu 06:16:50 PM 58.4833 -139.8500 134° Southeast 400 460 41,000  Level Anchorage Center
Thu 06:17:50 PM 58.4000 -139.6667 131° Southeast 410 472 41,000  Level Anchorage Center
Thu 06:18:51 PM 58.3167 -139.5000 134° Southeast 410 472 41,000  Level Anchorage Center
Thu 06:19:51 PM 58.2333 -139.3333 133° Southeast 400 460 41,000  Level Anchorage Center
Thu 06:20:51 PM 58.1667 -139.1833 130° Southeast 410 472 41,000  Level Anchorage Center
Thu 06:21:52 PM 58.0833 -139.0167 133° Southeast 410 472 41,000  Level Anchorage Center
Thu 06:22:52 PM 58.0000 -138.8500 133° Southeast 410 472 41,000  Level Anchorage Center
Thu 06:23:53 PM 57.9333 -138.7000 130° Southeast 410 472 41,000  Level Anchorage Center
Thu 06:24:53 PM 57.8500 -138.5333 133° Southeast 420 483 41,000  Level Anchorage Center
Thu 06:25:53 PM 57.7833 -138.4000 133° Southeast 410 472 41,000  Level Anchorage Center
Thu 06:26:54 PM 57.7000 -138.2500 136° Southeast 410 472 41,000  Level Anchorage Center
Thu 06:27:54 PM 57.6167 -138.0833 133° Southeast 420 483 41,000  Level Anchorage Center
Thu 06:28:54 PM 57.5333 -137.9167 133° Southeast 420 483 41,000  Level Anchorage Center
Thu 06:29:54 PM 57.4500 -137.7667 136° Southeast 420 483 41,000  Level Anchorage Center
Thu 06:30:55 PM 57.3667 -137.6167 136° Southeast 420 483 41,000  Level Anchorage Center
Thu 06:31:55 PM 57.3000 -137.4500 126° Southeast 420 483 41,000  Level Anchorage Center
Thu 06:32:55 PM 57.2000 -137.3000 141° Southeast 430 495 41,000  Level Anchorage Center
Thu 06:33:56 PM 57.1167 -137.1333 133° Southeast 420 483 41,000  Level Anchorage Center
Thu 06:34:56 PM 57.0500 -136.9833 129° Southeast 430 495 41,000  Level Anchorage Center
Thu 06:35:56 PM 56.9500 -136.8167 138° Southeast 430 495 41,000  Level Anchorage Center
Thu 06:36:57 PM 56.8667 -136.6333 130° Southeast 430 495 41,000  Level Anchorage Center
Thu 06:37:57 PM 56.7667 -136.4833 141° Southeast 430 495 41,000  Level Anchorage Center
Thu 06:38:57 PM 56.6833 -136.3333 135° Southeast 430 495 41,000  Level Anchorage Center
Thu 06:39:58 PM 56.6000 -136.1833 135° Southeast 430 495 41,000  Level Anchorage Center
Thu 06:41:00 PM 56.5333 -136.1000 145° Southeast 430 495 41,000  Level Vancouver Center
Thu 06:42:00 PM 56.4333 -135.9500 140° Southeast 430 495 41,000  Level Vancouver Center
Thu 06:43:00 PM 56.3500 -135.7833 132° Southeast 430 495 41,000  Level Vancouver Center
Thu 06:44:00 PM 56.2667 -135.6333 135° Southeast 430 495 41,000  Level Vancouver Center
Thu 06:45:00 PM 56.2000 -135.5167 136° Southeast 420 483 41,000  Level Vancouver Center
Thu 06:46:00 PM 56.1000 -135.2833 127° Southeast 410 472 41,000  Level Anchorage Center
Thu 06:47:00 PM 56.0167 -135.1500 138° Southeast 410 472 41,000  Level Anchorage Center
Thu 06:48:01 PM 55.9500 -135.0000 128° Southeast 410 472 41,000  Level Anchorage Center
Thu 06:49:01 PM 55.8667 -134.8667 138° Southeast 410 472 41,000  Level Anchorage Center
Thu 06:50:01 PM 55.7833 -134.7333 138° Southeast 400 460 41,000  Level Anchorage Center
Thu 06:51:02 PM 55.7000 -134.5833 135° Southeast 410 472 41,000  Level Anchorage Center
Thu 06:52:00 PM 55.6167 -134.5167 156° South 410 472 41,000  Level Vancouver Center
Thu 06:53:02 PM 55.5333 -134.3167 126° Southeast 410 472 41,000  Level Anchorage Center
Thu 06:54:00 PM 55.4333 -134.2333 155° Southeast 410 472 41,000  Level Vancouver Center
Thu 06:55:00 PM 55.3667 -134.0833 128° Southeast 410 472 41,000  Level Vancouver Center
Thu 06:56:00 PM 55.2667 -133.9500 143° Southeast 410 472 41,000  Level Vancouver Center
Thu 06:57:00 PM 55.2000 -133.8167 131° Southeast 410 472 41,000  Level Vancouver Center
Thu 06:58:00 PM 55.1167 -133.6667 134° Southeast 410 472 41,000  Level Vancouver Center
Thu 06:59:00 PM 55.0333 -133.5333 137° Southeast 410 472 41,000  Level Vancouver Center
Thu 07:00:00 PM 54.9500 -133.4000 137° Southeast 410 472 41,000  Level Vancouver Center
Thu 07:01:04 PM 54.8667 -133.2167 128° Southeast 410 472 41,000  Level Anchorage Center
Thu 07:02:05 PM 54.7833 -133.1000 141° Southeast 410 472 41,000  Level Anchorage Center
Thu 07:03:05 PM 54.7000 -132.9500 134° Southeast 400 460 41,000  Level Anchorage Center
Thu 07:04:05 PM 54.6167 -132.8333 141° Southeast 410 472 41,000  Level Anchorage Center
Thu 07:05:00 PM 54.5167 -132.7500 154° Southeast 410 472 41,000  Level Vancouver Center
Thu 07:06:00 PM 54.4500 -132.6167 131° Southeast 410 472 41,000  Level Vancouver Center
Thu 07:07:00 PM 54.3667 -132.4833 137° Southeast 410 472 41,000  Level Vancouver Center
Thu 07:08:00 PM 54.2833 -132.3833 145° Southeast 410 472 41,000  Level Vancouver Center
Thu 07:09:00 PM 54.2000 -132.2167 130° Southeast 410 472 41,000  Level Vancouver Center
Thu 07:10:00 PM 54.1167 -132.1167 145° Southeast 410 472 41,000  Level Vancouver Center
Thu 07:11:00 PM 54.0167 -131.9833 142° Southeast 410 472 41,000  Level Vancouver Center
Thu 07:12:00 PM 53.9333 -131.8500 137° Southeast 410 472 41,000  Level Vancouver Center
Thu 07:13:00 PM 53.8500 -131.7333 140° Southeast 410 472 41,000  Level Vancouver Center
Thu 07:14:00 PM 53.7667 -131.6000 137° Southeast 410 472 41,000  Level Vancouver Center
Thu 07:15:00 PM 53.6833 -131.4667 137° Southeast 410 472 41,000  Level Vancouver Center
Thu 07:16:00 PM 53.6000 -131.3500 140° Southeast 410 472 41,000  Level Vancouver Center
Thu 07:17:00 PM 53.5167 -131.2167 136° Southeast 410 472 41,000  Level Vancouver Center
Thu 07:18:00 PM 53.4333 -131.0833 136° Southeast 410 472 41,000  Level Vancouver Center
Thu 07:19:00 PM 53.3333 -130.9667 145° Southeast 410 472 41,000  Level Vancouver Center
Thu 07:20:00 PM 53.2667 -130.8333 130° Southeast 410 472 41,000  Level Vancouver Center
Thu 07:21:00 PM 53.1667 -130.7167 145° Southeast 410 472 41,000  Level Vancouver Center
Thu 07:22:00 PM 53.0833 -130.6167 144° Southeast 410 472 41,000  Level Vancouver Center
Thu 07:23:00 PM 53.0000 -130.4667 133° Southeast 410 472 41,000  Level Vancouver Center
Thu 07:24:00 PM 52.9167 -130.3667 144° Southeast 410 472 41,000  Level Vancouver Center
Thu 07:25:00 PM 52.8167 -130.2333 141° Southeast 410 472 41,000  Level Vancouver Center
Thu 07:26:00 PM 52.7333 -130.1167 140° Southeast 400 460 41,000  Level Vancouver Center
Thu 07:27:00 PM 52.6500 -130.0000 140° Southeast 410 472 41,000  Level Vancouver Center
Thu 07:28:00 PM 52.5500 -129.8667 141° Southeast 410 472 41,000  Level Vancouver Center
Thu 07:29:00 PM 52.4833 -129.7500 133° Southeast 410 472 41,000  Level Vancouver Center
Thu 07:30:00 PM 52.3833 -129.6333 145° Southeast 410 472 41,000  Level Vancouver Center
Thu 07:31:00 PM 52.3000 -129.5000 136° Southeast 410 472 41,000  Level Vancouver Center
Thu 07:32:00 PM 52.2167 -129.4167 148° Southeast 410 472 41,000  Level Vancouver Center
Thu 07:33:00 PM 52.1167 -129.3000 144° Southeast 410 472 41,000  Level Vancouver Center
Thu 07:34:00 PM 52.0333 -129.1833 139° Southeast 410 472 41,000  Level Vancouver Center
Thu 07:35:00 PM 51.9500 -129.0500 135° Southeast 410 472 41,000  Level Vancouver Center
Thu 07:36:00 PM 51.8667 -128.9333 139° Southeast 410 472 41,000  Level Vancouver Center
Thu 07:37:00 PM 51.7667 -128.8167 144° Southeast 400 460 41,000  Level Vancouver Center
Thu 07:38:00 PM 51.7000 -128.7000 133° Southeast 410 472 41,000  Level Vancouver Center
Thu 07:39:00 PM 51.6000 -128.5833 144° Southeast 410 472 41,000  Level Vancouver Center
Thu 07:40:00 PM 51.5000 -128.4667 144° Southeast 410 472 41,000  Level Vancouver Center
Thu 07:41:01 PM 51.4167 -128.3833 148° Southeast 400 460 41,000  Level Vancouver Center
Thu 07:42:00 PM 51.3333 -128.2333 132° Southeast 400 460 41,000  Level Vancouver Center
Thu 07:43:00 PM 51.2500 -128.1500 148° Southeast 400 460 41,000  Level Vancouver Center
Thu 07:44:00 PM 51.1667 -128.0333 139° Southeast 400 460 41,000  Level Vancouver Center
Thu 07:45:00 PM 51.0667 -127.9167 144° Southeast 400 460 41,000  Level Vancouver Center
Thu 07:46:01 PM 50.9833 -127.8000 139° Southeast 400 460 41,000  Level Vancouver Center
Thu 07:47:00 PM 50.9000 -127.6833 139° Southeast 400 460 41,000  Level Vancouver Center
Thu 07:48:00 PM 50.8000 -127.5833 148° Southeast 400 460 41,000  Level Vancouver Center
Thu 07:49:00 PM 50.7167 -127.4833 143° Southeast 410 472 41,000  Level Vancouver Center
Thu 07:50:01 PM 50.6167 -127.3500 140° Southeast 420 483 41,000  Level Vancouver Center
Thu 07:51:00 PM 50.5167 -127.2333 143° Southeast 430 495 41,000  Level Vancouver Center
Thu 07:52:00 PM 50.4333 -127.1333 143° Southeast 430 495 41,000  Level Vancouver Center
Thu 07:53:00 PM 50.3333 -127.0167 143° Southeast 430 495 41,000  Level Vancouver Center
Thu 07:59:20 PM 49.7401 -126.2823 143° Southeast 435 501 41,000  Level FlightAware ADS-B
Thu 08:00:08 PM 49.6668 -126.1973 143° Southeast 436 502 41,000  Level FlightAware ADS-B
Thu 08:02:18 PM 49.4535 -125.9517 143° Southeast 438 504 41,000  Level FlightAware ADS-B
Thu 08:02:58 PM 49.3933 -125.8829 143° Southeast 439 505 41,000  Level FlightAware ADS-B
Thu 08:03:42 PM 49.3175 -125.7966 143° Southeast 438 504 41,000  Level FlightAware ADS-B
Thu 08:04:24 PM 49.2482 -125.7179 143° Southeast 438 504 41,000  Level FlightAware ADS-B
Thu 08:05:00 PM 49.1904 -125.6524 144° Southeast 437 503 41,000  Level FlightAware ADS-B
Thu 08:06:31 PM 49.0955 -125.5456 144° Southeast 433 498 41,000  Level FlightAware ADS-B
Thu 08:07:06 PM 48.9797 -125.4157 144° Southeast 432 497 41,000  Level FlightAware ADS-B (FAKM / KIM)
Thu 08:07:46 PM 48.9228 -125.3520 144° Southeast 431 496 41,000  Level FlightAware ADS-B
Thu 08:07:52 PM 48.9049 -125.3324 144° Southeast 431 496 41,000  Level FlightAware ADS-B (FAKM / KIM)
Thu 08:08:17 PM 48.8719 -125.2960 144° Southeast 431 496 41,000  Level FlightAware ADS-B
Thu 08:08:23 PM 48.8562 -125.2782 143° Southeast 431 496 41,000  Level FlightAware ADS-B (FAKM / KIM)
Thu 08:08:55 PM 48.8108 -125.2280 144° Southeast 431 496 41,000  Level FlightAware ADS-B
Thu 08:09:26 PM 48.7615 -125.1730 144° Southeast 430 495 41,000  Level FlightAware ADS-B
Thu 08:09:31 PM 48.7470 -125.1573 144° Southeast 431 496 41,000  Level FlightAware ADS-B (FAKM / KIM)
Thu 08:10:03 PM 48.6957 -125.1007 144° Southeast 431 496 41,000  Level FlightAware ADS-B (FAKM / KIM)
Thu 08:10:50 PM 48.6204 -125.0157 143° Southeast 431 496 41,000  Level FlightAware ADS-B (FAKM / KIM)
Thu 08:11:21 PM 48.5724 -124.9565 141° Southeast 431 496 41,000  Level FlightAware ADS-B (FAKM / KIM)
Thu 08:12:04 PM 48.5131 -124.8846 141° Southeast 431 496 41,000  Level FlightAware ADS-B
Thu 08:12:16 PM 48.4934 -124.8610 142° Southeast 432 497 41,000  Level FlightAware ADS-B
Thu 08:12:43 PM 48.4519 -124.8106 141° Southeast 432 497 41,000  Level FlightAware ADS-B
Thu 08:12:49 PM 48.4427 -124.8000 143° Southeast 432 497 41,000  Level FlightAware ADS-B
Thu 08:13:16 PM 48.4311 -124.7855 140° Southeast 432 497 41,000  Level FlightAware ADS-B
Thu 08:13:19 PM 48.3961 -124.7430 141° Southeast 432 497 41,000 -1,784 Level FlightAware ADS-B
Thu 08:13:53 PM 48.3441 -124.6810 142° Southeast 422 486 39,900 -2,000 Descending FlightAware ADS-B
Thu 08:14:01 PM 48.3326 -124.6667 140° Southeast 413 475 39,600 -2,600 Descending FlightAware ADS-B
Thu 08:14:23 PM 48.2985 -124.6260 142° Southeast 413 475 38,600 -2,595 Descending FlightAware ADS-B
Thu 08:14:38 PM 48.2773 -124.6002 141° Southeast 401 461 38,000 -2,600 Descending FlightAware ADS-B
Thu 08:14:53 PM 48.2543 -124.5730 142° Southeast 405 466 37,300 -2,462 Descending FlightAware ADS-B
Thu 08:15:17 PM 48.2195 -124.5306 141° Southeast 396 456 36,400 -2,379 Descending FlightAware ADS-B
Thu 08:15:51 PM 48.1711 -124.4726 141° Southeast 397 457 35,000 -2,500 Descending FlightAware ADS-B
Thu 08:15:53 PM 48.1680 -124.4690 142° Southeast 403 464 34,900 -2,545 Descending FlightAware ADS-B
Thu 08:16:24 PM 48.1235 -124.4160 142° Southeast 402 463 33,600 -2,432 Descending FlightAware ADS-B
Thu 08:16:30 PM 48.1160 -124.4070 141° Southeast 401 461 33,400 -2,538 Descending FlightAware ADS-B
Thu 08:16:50 PM 48.0848 -124.3697 141° Southeast 391 450 32,500 -2,500 Descending FlightAware ADS-B
Thu 08:16:54 PM 48.0801 -124.3640 141° Southeast 396 456 32,400 -2,364 Descending FlightAware ADS-B
Thu 08:17:23 PM 48.0385 -124.3146 142° Southeast 391 450 31,200 -2,600 Descending FlightAware ADS-B
Thu 08:17:24 PM 48.0371 -124.3130 142° Southeast 391 450 31,100 -2,323 Descending FlightAware ADS-B
Thu 08:17:54 PM 47.9948 -124.2628 142° Southeast 384 442 30,000 -2,361 Descending FlightAware ADS-B
Thu 08:18:25 PM 47.9526 -124.2130 142° Southeast 383 441 28,700 -2,512 Descending FlightAware ADS-B
Thu 08:18:37 PM 47.9351 -124.1923 142° Southeast 387 445 28,200 -2,400 Descending FlightAware ADS-B
Thu 08:18:55 PM 47.9104 -124.1630 142° Southeast 389 448 27,500 -2,267 Descending FlightAware ADS-B
Thu 08:19:22 PM 47.8722 -124.1182 142° Southeast 390 449 26,500 -2,400 Descending FlightAware ADS-B
Thu 08:19:25 PM 47.8676 -124.1130 143° Southeast 390 449 26,300 -2,545 Descending FlightAware ADS-B
Thu 08:19:55 PM 47.8246 -124.0620 141° Southeast 385 443 25,100 -2,400 Descending FlightAware ADS-B
Thu 08:20:10 PM 47.8043 -124.0381 142° Southeast 374 430 24,500 -2,400 Descending FlightAware ADS-B
Thu 08:20:25 PM 47.7833 -124.0140 142° Southeast 376 433 23,900 -2,229 Descending FlightAware ADS-B
Thu 08:20:45 PM 47.7622 -123.9887 141° Southeast 372 428 23,200 -2,129 Descending FlightAware ADS-B
Thu 08:20:56 PM 47.7427 -123.9660 142° Southeast 370 426 22,800 -2,286 Descending FlightAware ADS-B
Thu 08:21:27 PM 47.7013 -123.9180 142° Southeast 365 420 21,600 -2,262 Descending FlightAware ADS-B
Thu 08:21:57 PM 47.6611 -123.8710 142° Southeast 359 413 20,500 -2,250 Descending FlightAware ADS-B
Thu 08:22:07 PM 47.6487 -123.8562 141° Southeast 351 404 20,100 -2,400 Descending FlightAware ADS-B
Thu 08:22:27 PM 47.6222 -123.8250 142° Southeast 356 410 19,300 -2,294 Descending FlightAware ADS-B
Thu 08:22:41 PM 47.6049 -123.8052 142° Southeast 350 403 18,800 -2,000 Descending FlightAware ADS-B
Thu 08:22:57 PM 47.5833 -123.7800 142° Southeast 355 409 18,300 -2,118 Descending FlightAware ADS-B
Thu 08:23:15 PM 47.5608 -123.7541 142° Southeast 348 400 17,600 -2,200 Descending FlightAware ADS-B
Thu 08:23:27 PM 47.5447 -123.7350 141° Southeast 347 399 17,200 -2,143 Descending FlightAware ADS-B
Thu 08:23:57 PM 47.5078 -123.6920 142° Southeast 328 377 16,100 -2,043 Descending FlightAware ADS-B
Thu 08:24:14 PM 47.4886 -123.6703 143° Southeast 314 361 15,600 -1,935 Descending FlightAware ADS-B
Thu 08:24:28 PM 47.4727 -123.6520 142° Southeast 320 368 15,100 -2,045 Descending FlightAware ADS-B
Thu 08:24:58 PM 47.4376 -123.6110 142° Southeast 317 365 14,100 -2,000 Descending FlightAware ADS-B
Thu 08:25:28 PM 47.4029 -123.5710 142° Southeast 315 362 13,100 -1,900 Descending FlightAware ADS-B
Thu 08:25:58 PM 47.3683 -123.5310 142° Southeast 312 359 12,200 -1,869 Descending FlightAware ADS-B
Thu 08:26:29 PM 47.3340 -123.4920 142° Southeast 308 354 11,200 -1,967 Descending FlightAware ADS-B
Thu 08:26:59 PM 47.2994 -123.4530 143° Southeast 318 366 10,200 -1,200 Descending FlightAware ADS-B
Thu 08:27:29 PM 47.2650 -123.4130 142° Southeast 311 358 10,000 -200 Descending FlightAware ADS-B
Thu 08:27:59 PM 47.2305 -123.3740 142° Southeast 313 360 10,000  Level FlightAware ADS-B
Thu 08:28:23 PM 47.2028 -123.3420 142° Southeast 315 362 10,000  Level FlightAware ADS-B
Thu 08:28:47 PM 47.1761 -123.3120 143° Southeast 316 364 10,000  Level FlightAware ADS-B
Thu 08:29:17 PM 47.1406 -123.2720 143° Southeast 317 365 10,000  Level FlightAware ADS-B
Thu 08:29:47 PM 47.1056 -123.2320 142° Southeast 319 367 10,000  Level FlightAware ADS-B
Thu 08:30:09 PM 47.0803 -123.2030 142° Southeast 316 364 10,000 -649 Level FlightAware ADS-B
Thu 08:30:24 PM 47.0632 -123.1840 143° Southeast 309 356 9,600 -1,800 Descending FlightAware ADS-B
Thu 08:30:39 PM 47.0463 -123.1650 143° Southeast 308 354 9,100 -2,129 Descending FlightAware ADS-B
Thu 08:30:55 PM 47.0291 -123.1450 142° Southeast 305 351 8,500 -2,323 Descending FlightAware ADS-B
Thu 08:31:10 PM 47.0124 -123.1260 142° Southeast 303 349 7,900 -2,200 Descending FlightAware ADS-B
Thu 08:31:25 PM 46.9956 -123.1070 142° Southeast 302 348 7,400 -2,200 Descending FlightAware ADS-B
Thu 08:31:40 PM 46.9791 -123.0890 143° Southeast 291 335 6,800 -2,200 Descending FlightAware ADS-B
Thu 08:31:55 PM 46.9630 -123.0710 143° Southeast 284 327 6,300 -2,200 Descending FlightAware ADS-B
Thu 08:32:10 PM 46.9476 -123.0530 141° Southeast 277 319 5,700 -2,129 Descending FlightAware ADS-B
Thu 08:32:26 PM 46.9316 -123.0350 142° Southeast 270 311 5,200 -1,862 Descending FlightAware ADS-B
Thu 08:32:39 PM 46.9189 -123.0210 143° Southeast 266 306 4,800 -1,800 Descending FlightAware ADS-B
Thu 08:32:46 PM 46.9126 -123.0140 143° Southeast 262 302 4,600 -1,636 Descending FlightAware ADS-B
Thu 08:32:50 PM 46.9085 -123.0100 146° Southeast 255 293 4,500 -667 Descending FlightAware ADS-B
Thu 08:32:55 PM 46.9036 -123.0060 151° Southeast 246 283 4,500  Level FlightAware ADS-B
Thu 08:32:58 PM 46.8998 -123.0030 152° Southeast 240 276 4,500 -750 Level FlightAware ADS-B
Thu 08:33:03 PM 46.8954 -123.0010 163° South 233 268 4,400 -600 Descending FlightAware ADS-B
Thu 08:33:08 PM 46.8897 -122.9980 160° South 227 261 4,400 -545 Level FlightAware ADS-B
Thu 08:33:14 PM 46.8844 -122.9970 173° South 221 254 4,300 -1,091 Descending FlightAware ADS-B
Thu 08:33:19 PM 46.8788 -122.9950 166° South 217 250 4,200 -800 Descending FlightAware ADS-B
Thu 08:33:29 PM 46.8694 -122.9940 176° South 212 244 4,100 -1,143 Descending FlightAware ADS-B
Thu 08:33:40 PM 46.8584 -122.9930 176° South 207 238 3,800 -1,286 Descending FlightAware ADS-B
Thu 08:33:57 PM 46.8427 -122.9920 178° South 203 234 3,500 -1,125 Descending FlightAware ADS-B
Thu 08:34:12 PM 46.8281 -122.9910 177° South 200 230 3,200 -1,200 Descending FlightAware ADS-B
Thu 08:34:27 PM 46.8143 -122.9900 177° South 197 227 2,900 -1,161 Descending FlightAware ADS-B
Thu 08:34:43 PM 46.8005 -122.9900 180° South 195 224 2,600 -968 Descending FlightAware ADS-B
Thu 08:34:58 PM 46.7872 -122.9890 177° South 185 213 2,400 -1,000 Descending FlightAware ADS-B
Thu 08:35:13 PM 46.7745 -122.9880 177° South 176 203 2,100 -1,200 Descending FlightAware ADS-B
Thu 08:35:28 PM 46.7628 -122.9880 180° South 165 190 1,800 -923 Descending FlightAware ADS-B
Thu 08:35:52 PM 46.7453 -122.9870 178° South 155 178 1,500 -750 Descending FlightAware ADS-B

Login

Don't have an account? Register now (free) for customized features, flight alerts, and more!